createdAt,value
2019-04-23T00:02:34.973Z,6.53
2019-04-23T00:05:09.796Z,5.70
2019-04-23T00:10:19.557Z,6.50
2019-04-23T00:15:12.869Z,6.10
2019-04-23T00:17:42.453Z,6.42
2019-04-23T00:23:09.248Z,6.30
2019-04-23T00:26:01.991Z,6.23
2019-04-23T00:35:50.099Z,6.47
2019-04-23T00:38:28.356Z,6.40
2019-04-23T00:40:51.271Z,6.60
2019-04-23T00:43:21.821Z,6.85
2019-04-23T00:45:50.317Z,6.40
2019-04-23T00:48:31.208Z,6.62
2019-04-23T00:50:54.302Z,6.57
2019-04-23T00:53:23.387Z,6.60
2019-04-23T00:55:55.688Z,6.67
2019-04-23T00:58:32.594Z,6.30
2019-04-23T01:00:56.126Z,6.90
2019-04-23T01:03:33.900Z,6.53
2019-04-23T01:13:36.723Z,7.12
2019-04-23T01:16:07.213Z,7.08
2019-04-23T01:18:49.129Z,6.70
2019-04-23T01:20:54.472Z,6.72
2019-04-23T01:23:57.823Z,7.37
2019-04-23T01:26:47.270Z,7.22
2019-04-23T01:29:36.951Z,7.00
2019-04-23T01:31:50.229Z,7.40
2019-04-23T01:34:21.840Z,6.85
2019-04-23T01:36:40.205Z,7.33
2019-04-23T01:39:17.574Z,7.17
2019-04-23T01:41:48.054Z,7.00
2019-04-23T01:44:21.820Z,7.50
2019-04-23T01:46:49.288Z,7.28
2019-04-23T01:49:18.354Z,7.70
2019-04-23T01:51:46.848Z,7.20
2019-04-23T01:54:19.272Z,7.50
2019-04-23T01:56:40.068Z,7.60
2019-04-23T01:59:18.343Z,7.58
2019-04-23T02:04:25.021Z,7.53
2019-04-23T02:06:45.044Z,7.72
2019-04-23T02:09:18.445Z,7.75
2019-04-23T02:12:04.143Z,7.50
2019-04-23T02:14:21.234Z,7.80
2019-04-23T02:16:50.345Z,8.00
2019-04-23T02:22:01.373Z,8.00
2019-04-23T02:24:30.518Z,7.90
2019-04-23T02:26:55.539Z,8.40
2019-04-23T02:29:51.358Z,7.95
2019-04-23T02:32:03.577Z,8.13
2019-04-23T02:37:06.687Z,8.10
2019-04-23T02:39:46.463Z,8.50
2019-04-23T02:42:19.101Z,8.20
2019-04-23T02:44:31.951Z,8.90
2019-04-23T02:47:14.907Z,8.10
2019-04-23T02:49:45.919Z,8.63
2019-04-23T02:54:44.241Z,8.38
2019-04-23T03:00:15.256Z,8.78
2019-04-23T03:04:49.936Z,9.15
2019-04-23T03:07:27.346Z,9.10
2019-04-23T03:12:29.490Z,8.88
2019-04-23T03:14:52.886Z,8.90
2019-04-23T03:17:27.281Z,9.30
2019-04-23T03:20:14.867Z,9.20
2019-04-23T03:22:55.956Z,8.98
2019-04-23T03:25:29.949Z,9.00
2019-04-23T03:32:31.511Z,8.90
2019-04-23T03:38:30.155Z,9.43
2019-04-23T03:40:50.428Z,9.80
2019-04-23T03:43:19.803Z,9.05
2019-04-23T03:48:27.037Z,9.83
2019-04-23T03:53:25.681Z,9.90
2019-04-23T03:55:54.564Z,9.90
2019-04-23T03:58:34.770Z,9.70
2019-04-23T04:03:48.176Z,10.15
2019-04-23T04:08:18.268Z,10.03
2019-04-23T04:11:02.545Z,9.90
2019-04-23T04:13:22.276Z,9.90
2019-04-23T04:15:55.705Z,10.40
2019-04-23T04:18:30.972Z,10.40
2019-04-23T04:21:01.094Z,10.20
2019-04-23T04:25:56.333Z,10.50
2019-04-23T04:31:07.508Z,10.60
2019-04-23T04:35:57.945Z,10.30
2019-04-23T04:46:04.830Z,10.00
2019-04-23T04:48:22.952Z,10.93
2019-04-23T04:51:00.063Z,10.57
2019-04-23T04:53:46.838Z,10.70
2019-04-23T04:55:55.708Z,10.70
2019-04-23T04:58:23.856Z,10.30
2019-04-23T05:03:25.869Z,10.78
2019-04-23T05:06:18.567Z,10.90
2019-04-23T05:08:29.132Z,10.43
2019-04-23T05:11:05.629Z,10.90
2019-04-23T05:13:43.435Z,11.40
2019-04-23T05:15:50.961Z,11.00
2019-04-23T05:18:47.157Z,10.65
2019-04-23T05:21:43.163Z,11.20
2019-04-23T05:23:50.988Z,10.65
2019-04-23T05:26:21.703Z,10.80
2019-04-23T05:31:20.377Z,10.38
2019-04-23T05:33:57.179Z,10.70
2019-04-23T05:36:33.905Z,10.50
2019-04-23T05:39:12.283Z,11.00
2019-04-23T05:41:24.929Z,10.65
2019-04-23T05:48:54.370Z,9.90
2019-04-23T05:51:17.942Z,10.20
2019-04-23T05:53:50.943Z,9.90
2019-04-23T05:56:20.652Z,10.60
2019-04-23T05:58:53.043Z,10.10
2019-04-23T06:04:03.546Z,9.85
2019-04-23T06:06:37.858Z,10.08
2019-04-23T06:09:04.015Z,9.70
2019-04-23T06:11:42.038Z,9.78
2019-04-23T06:14:13.500Z,9.53
2019-04-23T06:16:31.529Z,9.65
2019-04-23T06:19:02.863Z,9.70
2019-04-23T06:21:34.012Z,10.35
2019-04-23T06:23:58.286Z,8.78
2019-04-23T06:26:42.915Z,9.20
2019-04-23T06:28:59.387Z,9.50
2019-04-23T06:31:32.549Z,9.43
2019-04-23T06:34:04.705Z,9.00
2019-04-23T06:36:32.723Z,8.98
2019-04-23T06:38:55.822Z,9.50
2019-04-23T06:41:30.875Z,8.80
2019-04-23T06:44:14.448Z,9.28
2019-04-23T06:46:43.512Z,8.88
2019-04-23T06:49:10.894Z,9.50
2019-04-23T06:51:46.144Z,8.30
2019-04-23T06:54:12.390Z,8.70
2019-04-23T06:56:43.296Z,9.20
2019-04-23T06:59:12.891Z,8.48
2019-04-23T07:01:51.595Z,8.47
2019-04-23T07:04:15.151Z,7.95
2019-04-23T07:06:38.497Z,7.97
2019-04-23T07:09:12.026Z,7.90
2019-04-23T07:11:47.580Z,7.45
2019-04-23T07:14:24.709Z,8.37
2019-04-23T07:16:39.945Z,7.90
2019-04-23T07:21:37.289Z,8.00
2019-04-23T07:24:13.423Z,7.80
2019-04-23T07:29:11.009Z,7.78
2019-04-23T07:31:54.497Z,8.08
2019-04-23T07:34:20.397Z,7.40
2019-04-23T07:39:21.926Z,7.20
2019-04-23T07:42:13.488Z,7.30
2019-04-23T07:47:26.709Z,7.08
2019-04-23T07:50:11.335Z,7.65
2019-04-23T07:52:35.577Z,7.70
2019-04-23T07:55:02.200Z,7.30
2019-04-23T07:57:32.422Z,7.50
2019-04-23T08:00:00.501Z,7.83
2019-04-23T08:02:31.407Z,7.58
2019-04-23T08:05:11.640Z,6.90
2019-04-23T08:07:35.219Z,6.90
2019-04-23T08:10:00.698Z,7.00
2019-04-23T08:12:31.331Z,7.40
2019-04-23T08:15:07.483Z,7.47
2019-04-23T08:17:27.830Z,7.10
2019-04-23T08:20:09.536Z,7.22
2019-04-23T08:22:35.342Z,7.50
2019-04-23T08:25:19.216Z,7.00
2019-04-23T08:27:48.595Z,7.00
2019-04-23T08:30:22.043Z,7.10
2019-04-23T08:32:57.412Z,7.28
2019-04-23T08:35:23.224Z,7.03
2019-04-23T08:38:13.593Z,6.40
2019-04-23T08:42:52.754Z,6.80
2019-04-23T08:46:00.885Z,6.60
2019-04-23T08:50:57.856Z,6.30
2019-04-23T08:53:40.683Z,6.70
2019-04-23T08:55:53.935Z,6.28
2019-04-23T09:03:31.375Z,6.47
2019-04-23T09:05:57.642Z,6.42
2019-04-23T09:11:30.456Z,6.40
2019-04-23T09:13:50.290Z,6.40
2019-04-23T09:18:29.126Z,6.25
2019-04-23T09:20:57.187Z,6.10
2019-04-23T09:23:35.135Z,6.00
2019-04-23T09:25:57.757Z,6.30
2019-04-23T09:31:17.323Z,6.40
2019-04-23T09:33:58.284Z,6.03
2019-04-23T09:36:40.574Z,6.40
2019-04-23T09:41:51.073Z,5.90
2019-04-23T09:44:53.637Z,5.80
2019-04-23T09:47:37.161Z,5.40
2019-04-23T09:50:00.871Z,5.60
2019-04-23T09:52:37.893Z,6.03
2019-04-23T09:55:16.193Z,5.10
2019-04-23T09:57:37.013Z,5.70
2019-04-23T10:00:07.536Z,5.20
2019-04-23T10:02:27.413Z,5.67
2019-04-23T10:04:54.455Z,5.58
2019-04-23T10:07:21.027Z,5.10
2019-04-23T10:09:38.332Z,4.90
2019-04-23T10:12:07.353Z,5.20
2019-04-23T10:14:36.795Z,5.62
2019-04-23T10:17:06.453Z,5.33
2019-04-23T10:19:35.128Z,5.12
2019-04-23T10:22:07.111Z,5.20
2019-04-23T10:24:35.081Z,5.10
2019-04-23T10:27:04.177Z,5.45
2019-04-23T10:29:36.379Z,5.05
2019-04-23T10:32:04.733Z,5.45
2019-04-23T10:34:44.078Z,4.70
2019-04-23T10:37:02.486Z,5.00
2019-04-23T10:39:36.959Z,5.40
2019-04-23T10:42:01.855Z,5.45
2019-04-23T10:44:38.000Z,5.00
2019-04-23T10:47:54.001Z,5.42
2019-04-23T10:55:54.168Z,5.22
2019-04-23T10:58:23.098Z,5.07
2019-04-23T11:05:58.836Z,4.87
2019-04-23T11:08:29.090Z,5.20
2019-04-23T11:10:58.961Z,5.30
2019-04-23T11:13:50.356Z,5.00
2019-04-23T11:16:27.468Z,4.70
2019-04-23T11:18:38.415Z,4.90
2019-04-23T11:21:09.658Z,5.17
2019-04-23T11:23:34.853Z,5.28
2019-04-23T11:26:12.247Z,5.10
2019-04-23T11:28:36.266Z,4.80
2019-04-23T11:31:09.186Z,4.55
2019-04-23T11:33:41.542Z,4.80
2019-04-23T11:38:48.762Z,4.55
2019-04-23T11:41:17.038Z,4.62
2019-04-23T11:43:33.039Z,4.53
2019-04-23T11:46:25.759Z,4.90
2019-04-23T11:51:57.960Z,4.97
2019-04-23T11:54:18.093Z,4.40
2019-04-23T11:59:25.887Z,4.30
2019-04-23T12:01:57.810Z,4.58
2019-04-23T12:04:55.893Z,4.20
2019-04-23T12:07:34.763Z,4.25
2019-04-23T12:10:02.472Z,4.37
2019-04-23T12:12:39.632Z,4.72
2019-04-23T12:17:31.727Z,5.30
2019-04-23T12:22:45.629Z,4.90
2019-04-23T12:27:31.476Z,4.30
2019-04-23T12:30:08.374Z,4.30
2019-04-23T12:32:48.061Z,4.40
2019-04-23T12:35:12.886Z,4.45
2019-04-23T12:40:17.588Z,4.50
2019-04-23T12:45:24.995Z,4.72
2019-04-23T12:47:50.473Z,4.30
2019-04-23T12:50:38.751Z,4.83
2019-04-23T12:52:51.215Z,4.05
2019-04-23T12:55:37.016Z,4.20
2019-04-23T12:57:52.234Z,4.03
2019-04-23T13:03:02.877Z,4.30
2019-04-23T13:05:25.977Z,4.35
2019-04-23T13:07:52.103Z,4.20
2019-04-23T13:10:21.048Z,4.10
2019-04-23T13:15:34.687Z,4.50
2019-04-23T13:20:23.492Z,4.40
2019-04-23T13:22:57.722Z,4.13
2019-04-23T13:28:21.764Z,4.10
2019-04-23T13:30:54.768Z,4.15
2019-04-23T13:33:31.877Z,4.08
2019-04-23T13:38:28.757Z,4.00
2019-04-23T13:48:20.166Z,4.50
2019-04-23T13:53:35.006Z,4.60
2019-04-23T13:55:52.520Z,3.87
2019-04-23T13:58:32.967Z,4.13
2019-04-23T14:01:08.684Z,4.10
2019-04-23T14:06:18.143Z,4.10
2019-04-23T14:08:46.996Z,4.30
2019-04-23T14:14:33.042Z,4.10
2019-04-23T14:17:13.073Z,4.00
2019-04-23T14:19:45.667Z,4.20
2019-04-23T14:22:52.619Z,3.80
2019-04-23T14:25:41.506Z,3.83
2019-04-23T14:28:15.995Z,4.25
2019-04-23T14:30:38.884Z,4.10
2019-04-23T14:33:19.020Z,4.08
2019-04-23T14:35:45.253Z,4.30
2019-04-23T14:38:30.283Z,4.30
2019-04-23T14:40:59.547Z,4.60
2019-04-23T14:43:31.269Z,4.40
2019-04-23T14:51:13.357Z,4.30
2019-04-23T14:53:42.715Z,4.45
2019-04-23T14:56:09.737Z,4.95
2019-04-23T15:01:22.123Z,4.70
2019-04-23T15:03:50.579Z,4.70
2019-04-23T15:13:44.801Z,5.72
2019-04-23T15:16:16.966Z,4.90
2019-04-23T15:19:10.783Z,5.10
2019-04-23T15:21:47.352Z,5.60
2019-04-23T15:24:25.215Z,4.80
2019-04-23T15:28:44.126Z,5.40
2019-04-23T15:31:39.429Z,5.47
2019-04-23T15:39:16.715Z,6.00
2019-04-23T15:41:43.916Z,5.28
2019-04-23T15:44:10.395Z,5.20
2019-04-23T15:46:39.287Z,6.03
2019-04-23T15:49:21.450Z,6.17
2019-04-23T15:51:47.922Z,6.03
2019-04-23T15:54:14.420Z,5.90
2019-04-23T15:56:47.817Z,6.20
2019-04-23T15:59:25.907Z,5.90
2019-04-23T16:01:37.613Z,6.30
2019-04-23T16:03:43.235Z,5.90
2019-04-23T16:06:11.429Z,6.28
2019-04-23T16:16:46.325Z,7.05
2019-04-23T16:20:06.134Z,6.45
2019-04-23T16:22:18.548Z,7.25
2019-04-23T16:24:55.568Z,6.85
2019-04-23T16:27:16.923Z,6.33
2019-04-23T16:30:08.276Z,7.15
2019-04-23T16:32:31.362Z,6.85
2019-04-23T16:35:10.902Z,6.22
2019-04-23T16:37:26.470Z,6.58
2019-04-23T16:40:01.865Z,6.90
2019-04-23T16:42:29.888Z,6.90
2019-04-23T16:45:16.453Z,7.62
2019-04-23T16:47:32.922Z,7.20
2019-04-23T16:50:04.744Z,7.33
2019-04-23T16:52:28.742Z,6.97
2019-04-23T16:54:58.448Z,7.70
2019-04-23T16:57:35.681Z,7.50
2019-04-23T17:02:24.756Z,7.67
2019-04-23T17:05:02.987Z,7.78
2019-04-23T17:07:24.198Z,8.03
2019-04-23T17:12:46.267Z,6.90
2019-04-23T17:15:02.781Z,7.20
2019-04-23T17:17:25.315Z,7.30
2019-04-23T17:20:06.597Z,7.50
2019-04-23T17:22:24.562Z,7.45
2019-04-23T17:25:07.488Z,7.95
2019-04-23T17:27:29.774Z,7.80
2019-04-23T17:29:58.034Z,8.28
2019-04-23T17:32:28.344Z,7.70
2019-04-23T17:35:22.564Z,7.45
2019-04-23T17:37:41.006Z,8.40
2019-04-23T17:42:50.879Z,7.40
2019-04-23T17:48:11.495Z,8.23
2019-04-23T17:50:53.259Z,7.62
2019-04-23T17:53:21.634Z,7.63
2019-04-23T17:55:54.723Z,7.30
2019-04-23T17:58:26.816Z,7.45
2019-04-23T18:03:18.372Z,7.20
2019-04-23T18:06:11.922Z,7.37
2019-04-23T18:11:09.281Z,7.30
2019-04-23T18:13:27.958Z,7.33
2019-04-23T18:16:06.974Z,7.50
2019-04-23T18:18:33.540Z,7.62
2019-04-23T18:21:23.805Z,7.70
2019-04-23T18:24:13.428Z,7.28
2019-04-23T18:26:36.866Z,7.43
2019-04-23T18:29:17.298Z,7.78
2019-04-23T18:31:56.136Z,7.60
2019-04-23T18:34:19.205Z,7.95
2019-04-23T18:36:52.309Z,8.15
2019-04-23T18:39:35.119Z,7.70
2019-04-23T18:42:03.885Z,8.40
2019-04-23T18:44:32.525Z,7.78
2019-04-23T18:47:17.395Z,9.30
2019-04-23T18:49:30.648Z,8.75
2019-04-23T18:52:17.047Z,8.48
2019-04-23T18:54:28.300Z,8.55
2019-04-23T18:57:09.541Z,8.50
2019-04-23T18:59:43.060Z,8.90
2019-04-23T19:02:44.169Z,9.03
2019-04-23T19:05:15.347Z,8.90
2019-04-23T19:08:02.987Z,8.80
2019-04-23T19:10:57.794Z,9.00
2019-04-23T19:13:42.162Z,9.50
2019-04-23T19:15:42.686Z,9.03
2019-04-23T19:18:22.245Z,9.30
2019-04-23T19:21:09.121Z,9.68
2019-04-23T19:23:25.650Z,9.28
2019-04-23T19:25:45.467Z,9.50
2019-04-23T19:28:38.112Z,9.50
2019-04-23T19:31:14.754Z,9.43
2019-04-23T19:33:41.649Z,10.13
2019-04-23T19:38:33.339Z,10.55
2019-04-23T19:41:03.909Z,9.43
2019-04-23T19:43:33.060Z,9.73
2019-04-23T19:46:12.615Z,10.28
2019-04-23T19:48:42.478Z,10.10
2019-04-23T19:51:02.671Z,10.40
2019-04-23T19:53:42.985Z,10.30
2019-04-23T19:56:08.728Z,11.22
2019-04-23T19:58:39.524Z,10.40
2019-04-23T20:03:37.863Z,10.10
2019-04-23T20:06:00.518Z,10.20
2019-04-23T20:08:46.268Z,9.68
2019-04-23T20:11:01.341Z,10.00
2019-04-23T20:13:37.888Z,9.70
2019-04-23T20:18:41.572Z,10.30
2019-04-23T20:20:59.278Z,9.73
2019-04-23T20:23:45.009Z,10.00
2019-04-23T20:26:16.020Z,9.98
2019-04-23T20:31:57.238Z,10.13
2019-04-23T20:34:07.677Z,9.73
2019-04-23T20:36:42.540Z,9.80
2019-04-23T20:41:21.195Z,9.93
2019-04-23T20:43:55.837Z,9.95
2019-04-23T20:46:23.174Z,10.55
2019-04-23T20:48:53.069Z,10.87
2019-04-23T20:51:14.317Z,10.60
2019-04-23T20:54:08.730Z,10.32
2019-04-23T20:58:56.272Z,10.20
2019-04-23T21:01:37.150Z,10.82
2019-04-23T21:04:00.482Z,10.53
2019-04-23T21:06:39.138Z,10.80
2019-04-23T21:09:17.510Z,10.90
2019-04-23T21:11:43.801Z,10.50
2019-04-23T21:16:37.508Z,10.60
2019-04-23T21:19:05.816Z,11.12
2019-04-23T21:21:46.925Z,10.82
2019-04-23T21:24:00.026Z,10.55
2019-04-23T21:26:44.193Z,10.43
2019-04-23T21:28:59.222Z,11.00
2019-04-23T21:31:42.782Z,10.80
2019-04-23T21:34:13.178Z,11.30
2019-04-23T21:37:06.246Z,10.80
2019-04-23T21:44:50.379Z,11.10
2019-04-23T21:47:43.666Z,11.08
2019-04-23T21:49:57.992Z,11.10
2019-04-23T21:52:12.997Z,10.90
2019-04-23T21:54:51.536Z,11.50
2019-04-23T21:57:14.549Z,11.40
2019-04-23T21:59:52.968Z,11.53
2019-04-23T22:02:38.380Z,11.50
2019-04-23T22:07:19.448Z,11.10
2019-04-23T22:09:50.631Z,11.43
2019-04-23T22:12:24.758Z,11.30
2019-04-23T22:17:25.733Z,11.40
2019-04-23T22:20:09.720Z,11.23
2019-04-23T22:22:32.021Z,11.40
2019-04-23T22:24:54.697Z,10.50
2019-04-23T22:27:19.648Z,11.15
2019-04-23T22:29:49.178Z,11.33
2019-04-23T22:32:30.816Z,11.00
2019-04-23T22:34:57.240Z,11.00
2019-04-23T22:37:23.875Z,11.30
2019-04-23T22:39:59.104Z,11.53
2019-04-23T22:42:42.260Z,11.40
2019-04-23T22:47:27.963Z,11.55
2019-04-23T22:50:02.618Z,11.43
2019-04-23T22:52:32.961Z,11.65
2019-04-23T22:55:02.406Z,11.38
2019-04-23T22:57:45.285Z,11.35
2019-04-23T23:00:11.284Z,11.35
2019-04-23T23:02:46.756Z,11.28
2019-04-23T23:05:20.226Z,11.20
2019-04-23T23:07:47.734Z,11.70
2019-04-23T23:15:15.947Z,11.30
2019-04-23T23:17:53.277Z,11.73
2019-04-23T23:20:15.186Z,11.20
2019-04-23T23:22:52.080Z,11.65
2019-04-23T23:25:20.804Z,11.93
2019-04-23T23:30:13.352Z,11.43
2019-04-23T23:35:24.250Z,11.73
2019-04-23T23:37:44.244Z,11.40
2019-04-23T23:40:20.290Z,11.50
2019-04-23T23:42:54.614Z,12.05
2019-04-23T23:45:18.356Z,11.50
2019-04-23T23:47:58.917Z,11.30
2019-04-23T23:53:12.304Z,11.38
2019-04-23T23:56:11.341Z,10.98
